Time;durP1;ratioP1;P1;durP2;ratioP2;P2;SDS_P1;SDS_P2;PMS_P1;PMS_P2;Temp;Humidity;BMP_temperature;BMP_pressure;BME280_temperature;BME280_humidity;BME280_pressure;Samples;Min_cycle;Max_cycle;Signal;HPM_P1;HPM_P2
2022/11/21 00:00:15;;;;;;;17.52;5.22;;;;;;;5.63;100.00;100460.00;4992122;28;20026;-81
2022/11/21 00:02:40;;;;;;;16.20;5.53;;;;;;;5.60;100.00;100458.41;4990858;28;20073;-83
2022/11/21 00:05:06;;;;;;;14.45;6.53;;;;;;;5.60;100.00;100463.63;4992373;28;20058;-83
2022/11/21 00:07:31;;;;;;;15.55;6.15;;;;;;;5.57;100.00;100471.59;4990897;28;20037;-82
2022/11/21 00:09:56;;;;;;;16.30;6.50;;;;;;;5.52;100.00;100465.81;4988827;28;20129;-84
2022/11/21 00:12:22;;;;;;;11.40;5.93;;;;;;;5.48;100.00;100474.75;4990190;28;20451;-84
2022/11/21 00:14:47;;;;;;;16.73;6.63;;;;;;;5.43;100.00;100474.19;4991476;28;20019;-85
2022/11/21 00:17:12;;;;;;;15.63;6.18;;;;;;;5.38;100.00;100478.84;4987999;28;20503;-84
2022/11/21 00:19:37;;;;;;;16.67;6.35;;;;;;;5.33;100.00;100475.69;4990304;28;20162;-82
2022/11/21 00:22:03;;;;;;;18.73;6.78;;;;;;;5.30;100.00;100497.56;4990659;28;20027;-81
2022/11/21 00:24:28;;;;;;;22.60;7.05;;;;;;;5.31;100.00;100503.63;4990867;28;20061;-84
2022/11/21 00:26:53;;;;;;;20.42;7.38;;;;;;;5.27;100.00;100492.53;4989377;28;20037;-83
2022/11/21 00:29:19;;;;;;;24.50;7.50;;;;;;;5.32;100.00;100482.66;4991178;28;20125;-82
2022/11/21 00:31:45;;;;;;;22.15;7.63;;;;;;;5.32;100.00;100479.22;4989659;28;20026;-82
2022/11/21 00:34:10;;;;;;;21.42;7.45;;;;;;;5.33;100.00;100471.31;4989912;28;20026;-82
2022/11/21 00:36:35;;;;;;;25.73;6.60;;;;;;;5.32;100.00;100474.00;4971600;28;20364;-81
2022/11/21 00:39:00;;;;;;;23.15;6.60;;;;;;;5.28;100.00;100477.72;4989779;28;20037;-82
2022/11/21 00:41:26;;;;;;;19.25;6.72;;;;;;;5.24;100.00;100471.00;4986749;28;20054;-82
2022/11/21 00:43:51;;;;;;;23.88;7.32;;;;;;;5.19;100.00;100475.63;4988641;28;20156;-81
2022/11/21 00:46:16;;;;;;;19.33;7.03;;;;;;;5.18;100.00;100464.34;4988880;28;20476;-83
2022/11/21 00:48:42;;;;;;;24.45;6.97;;;;;;;5.19;100.00;100465.19;4972761;28;20038;-82
2022/11/21 00:51:07;;;;;;;24.58;7.22;;;;;;;5.19;100.00;100462.56;4989637;28;20073;-83
2022/11/21 00:53:32;;;;;;;22.60;7.00;;;;;;;5.22;100.00;100463.25;4988597;28;20046;-83
2022/11/21 00:55:58;;;;;;;20.98;6.93;;;;;;;5.18;100.00;100471.31;4990818;28;20026;-81
2022/11/21 00:58:23;;;;;;;23.92;6.68;;;;;;;5.14;100.00;100464.59;4988518;28;20487;-83
2022/11/21 01:00:48;;;;;;;21.48;6.18;;;;;;;5.14;100.00;100467.22;4974321;28;20053;-83
2022/11/21 01:03:14;;;;;;;23.25;6.03;;;;;;;5.06;100.00;100469.44;4990536;28;20101;-83
2022/11/21 01:05:39;;;;;;;24.70;6.60;;;;;;;4.97;100.00;100463.81;4989055;28;20033;-83
2022/11/21 01:08:04;;;;;;;16.25;5.80;;;;;;;4.98;100.00;100467.28;4990251;28;20463;-81
2022/11/21 01:10:30;;;;;;;21.98;6.40;;;;;;;4.90;100.00;100475.53;4991644;28;20030;-83
2022/11/21 01:12:55;;;;;;;22.63;6.18;;;;;;;4.82;100.00;100474.28;4989746;28;20019;-82
2022/11/21 01:15:20;;;;;;;18.85;6.38;;;;;;;4.78;100.00;100484.00;4989323;28;20494;-82
2022/11/21 01:17:46;;;;;;;29.38;6.80;;;;;;;4.77;100.00;100486.69;4988975;28;20030;-83
2022/11/21 01:20:11;;;;;;;18.25;5.40;;;;;;;4.75;100.00;100484.19;4987983;28;20068;-83
2022/11/21 01:22:36;;;;;;;19.83;5.97;;;;;;;4.80;100.00;100476.94;4991513;28;20130;-81
2022/11/21 01:25:05;;;;;;;15.40;5.55;;;;;;;4.78;100.00;100473.59;4993835;28;20022;-83
2022/11/21 01:27:30;;;;;;;20.33;5.90;;;;;;;4.80;100.00;100476.09;4991081;28;20026;-83
2022/11/21 01:29:55;;;;;;;21.58;6.07;;;;;;;4.72;100.00;100473.94;4994084;28;20467;-83
2022/11/21 01:32:21;;;;;;;21.90;6.30;;;;;;;4.76;100.00;100465.00;4991170;28;20034;-83
2022/11/21 01:34:46;;;;;;;19.38;6.38;;;;;;;4.71;100.00;100470.50;4984536;28;20018;-83
2022/11/21 01:37:11;;;;;;;20.40;6.28;;;;;;;4.68;100.00;100478.47;4992933;28;20026;-83
2022/11/21 01:39:36;;;;;;;18.85;6.15;;;;;;;4.66;100.00;100469.06;4992322;28;20057;-83
2022/11/21 01:42:04;;;;;;;18.65;5.32;;;;;;;4.61;100.00;100473.69;4992145;28;20118;-82
2022/11/21 01:44:53;;;;;;;20.13;5.57;;;;;;;4.65;100.00;100472.59;4992415;28;20384;-82
2022/11/21 01:47:21;;;;;;;20.33;6.00;;;;;;;4.57;100.00;100477.41;4991680;28;20037;-82
2022/11/21 01:49:48;;;;;;;15.02;4.95;;;;;;;4.57;100.00;100474.78;4992160;28;20057;-83
2022/11/21 01:52:24;;;;;;;15.55;4.90;;;;;;;4.53;100.00;100473.28;4993611;28;20030;-81
2022/11/21 01:54:55;;;;;;;23.08;6.22;;;;;;;4.52;100.00;100474.22;4991164;28;20030;-82
2022/11/21 01:57:27;;;;;;;14.75;5.30;;;;;;;4.48;100.00;100470.09;4975128;28;20069;-82
2022/11/21 02:00:01;;;;;;;22.55;6.82;;;;;;;4.44;100.00;100468.59;4993692;28;20045;-82
2022/11/21 02:02:33;;;;;;;16.67;5.90;;;;;;;4.38;100.00;100472.34;4991646;28;20027;-82
2022/11/21 02:05:00;;;;;;;20.05;6.07;;;;;;;4.32;100.00;100465.69;4991754;28;20478;-82
2022/11/21 02:07:29;;;;;;;15.23;5.57;;;;;;;4.31;100.00;100468.38;4989245;28;20541;-83
2022/11/21 02:09:59;;;;;;;18.38;5.50;;;;;;;4.29;100.00;100478.03;4992075;28;20038;-82
2022/11/21 02:12:31;;;;;;;17.02;5.80;;;;;;;4.25;100.00;100479.13;4994490;28;20026;-82
2022/11/21 02:14:57;;;;;;;14.13;5.45;;;;;;;4.25;100.00;100476.53;4993739;28;20105;-82
2022/11/21 02:17:26;;;;;;;18.30;5.60;;;;;;;4.26;100.00;100479.06;4991555;28;20038;-82
2022/11/21 02:19:57;;;;;;;19.60;6.22;;;;;;;4.25;100.00;100489.56;4993403;28;20088;-82
2022/11/21 02:23:00;;;;;;;15.57;5.65;;;;;;;4.28;100.00;100490.22;4992122;28;20209;-82
2022/11/21 02:25:31;;;;;;;16.30;5.82;;;;;;;4.21;100.00;100488.88;4989468;28;20057;-82
2022/11/21 02:28:02;;;;;;;20.02;5.95;;;;;;;4.13;100.00;100498.88;4992710;28;20033;-83
2022/11/21 02:30:30;;;;;;;19.95;6.47;;;;;;;4.09;100.00;100489.53;4993210;28;20113;-83
2022/11/21 02:32:57;;;;;;;19.77;6.93;;;;;;;4.04;100.00;100486.34;4991846;28;20034;-83
2022/11/21 02:35:22;;;;;;;28.95;8.93;;;;;;;3.99;100.00;100488.31;4991757;28;21036;-82
2022/11/21 02:38:22;;;;;;;20.35;7.88;;;;;;;4.06;100.00;100489.72;4990637;28;20057;-82
2022/11/21 02:40:54;;;;;;;22.67;8.07;;;;;;;3.96;100.00;100483.28;4988379;28;20510;-82
2022/11/21 02:43:28;;;;;;;22.73;8.70;;;;;;;3.99;100.00;100489.16;4988192;28;20031;-82
2022/11/21 02:45:55;;;;;;;20.88;8.57;;;;;;;4.00;100.00;100495.22;4992804;28;20682;-82
2022/11/21 02:48:20;;;;;;;21.00;8.70;;;;;;;4.00;100.00;100495.22;4992432;28;20066;-83
2022/11/21 02:50:46;;;;;;;23.02;8.75;;;;;;;4.01;100.00;100486.50;4992231;28;20483;-82
2022/11/21 02:53:15;;;;;;;26.92;9.63;;;;;;;4.03;100.00;100495.06;4992390;28;20026;-82
2022/11/21 02:55:41;;;;;;;27.30;9.50;;;;;;;4.01;100.00;100491.72;4992312;28;20030;-82
2022/11/21 02:58:06;;;;;;;26.95;9.50;;;;;;;4.00;100.00;100479.59;4989102;28;20489;-82
2022/11/21 03:00:34;;;;;;;29.45;10.32;;;;;;;4.04;100.00;100488.94;4975329;28;20031;-83
2022/11/21 03:02:59;;;;;;;22.65;9.90;;;;;;;4.05;100.00;100490.63;4990651;28;20030;-83
2022/11/21 03:05:24;;;;;;;27.92;10.10;;;;;;;3.97;100.00;100484.97;4991137;28;20026;-82
2022/11/21 03:07:50;;;;;;;23.65;10.80;;;;;;;3.96;100.00;100488.47;4992675;28;20022;-82
2022/11/21 03:10:16;;;;;;;21.90;11.30;;;;;;;3.98;100.00;100497.06;4991501;28;20033;-82
2022/11/21 03:12:42;;;;;;;33.55;13.60;;;;;;;3.97;100.00;100496.22;4991720;28;20443;-83
2022/11/21 03:15:11;;;;;;;76.50;17.55;;;;;;;3.93;100.00;100483.44;4990953;28;20026;-82
2022/11/21 03:17:36;;;;;;;67.25;18.50;;;;;;;3.95;100.00;100482.44;4991986;28;20033;-82
2022/11/21 03:20:05;;;;;;;96.00;21.27;;;;;;;3.89;100.00;100481.91;4991907;28;20030;-82
2022/11/21 03:22:31;;;;;;;35.80;19.92;;;;;;;3.95;100.00;100481.59;4989991;28;20022;-82
2022/11/21 03:24:56;;;;;;;119.13;26.88;;;;;;;3.91;100.00;100480.06;4992087;28;20034;-82
2022/11/21 03:27:22;;;;;;;87.97;24.33;;;;;;;3.91;100.00;100480.06;4989668;28;20841;-82
2022/11/21 03:29:47;;;;;;;95.72;25.13;;;;;;;3.92;100.00;100466.16;4991932;28;20383;-82
2022/11/21 03:32:13;;;;;;;84.03;26.98;;;;;;;3.92;100.00;100473.94;4989717;28;20069;-82
2022/11/21 03:34:38;;;;;;;68.65;28.00;;;;;;;3.93;100.00;100473.88;4990102;28;20026;-82
2022/11/21 03:37:03;;;;;;;94.10;28.70;;;;;;;3.95;100.00;100481.59;4990794;28;20022;-81
2022/11/21 03:39:29;;;;;;;92.97;30.40;;;;;;;3.97;100.00;100479.75;4972545;28;20113;-82
2022/11/21 03:41:54;;;;;;;190.43;39.38;;;;;;;3.92;100.00;100471.34;4990846;28;20030;-81
2022/11/21 03:44:19;;;;;;;96.78;32.25;;;;;;;3.93;100.00;100471.25;4990211;28;20503;-82
2022/11/21 03:46:45;;;;;;;96.45;33.55;;;;;;;3.92;100.00;100471.34;4972845;28;20038;-82
2022/11/21 03:49:11;;;;;;;121.75;33.53;;;;;;;3.91;100.00;100472.28;4971829;28;20022;-82
2022/11/21 03:51:37;;;;;;;117.85;35.63;;;;;;;3.89;100.00;100474.97;4990258;28;20018;-82
2022/11/21 03:54:03;;;;;;;92.22;33.65;;;;;;;3.91;100.00;100469.66;4990112;28;20549;-82
2022/11/21 03:56:30;;;;;;;122.25;35.35;;;;;;;3.87;100.00;100470.75;4989027;28;20018;-83
2022/11/21 03:58:55;;;;;;;101.80;33.83;;;;;;;3.89;100.00;100487.13;4973615;28;20407;-83
2022/11/21 04:01:21;;;;;;;63.30;32.33;;;;;;;3.92;100.00;100492.16;4989491;28;20102;-84
2022/11/21 04:03:47;;;;;;;100.85;34.42;;;;;;;3.92;100.00;100486.97;4973381;28;20168;-82
2022/11/21 04:06:15;;;;;;;84.05;33.65;;;;;;;3.92;100.00;100497.38;4988779;28;20112;-82
2022/11/21 04:08:40;;;;;;;127.82;36.00;;;;;;;3.88;100.00;100485.44;4989162;28;20068;-82
2022/11/21 04:11:06;;;;;;;231.82;44.15;;;;;;;3.84;100.00;100486.53;4988819;28;20025;-82
2022/11/21 04:13:32;;;;;;;243.35;43.67;;;;;;;3.78;100.00;100478.13;4988875;28;20053;-81
2022/11/21 04:15:57;;;;;;;141.38;35.25;;;;;;;3.84;100.00;100479.56;4988508;28;20112;-82
2022/11/21 04:18:23;;;;;;;100.95;34.45;;;;;;;3.82;100.00;100483.16;4988827;28;20062;-81
2022/11/21 04:20:59;;;;;;;251.10;45.15;;;;;;;3.76;100.00;100484.31;4988624;28;20026;-82
2022/11/21 04:23:25;;;;;;;205.63;39.80;;;;;;;3.74;100.00;100484.41;4988296;28;20112;-82
2022/11/21 04:25:51;;;;;;;94.93;32.30;;;;;;;3.75;100.00;100475.69;4989219;28;20019;-82
2022/11/21 04:28:17;;;;;;;123.32;34.58;;;;;;;3.78;100.00;100475.53;4972609;28;20077;-82
2022/11/21 04:30:42;;;;;;;202.77;40.28;;;;;;;3.75;100.00;100474.84;4989393;28;20026;-82
2022/11/21 04:33:07;;;;;;;181.38;39.58;;;;;;;3.76;100.00;100469.56;4990109;28;20030;-83
2022/11/21 04:35:33;;;;;;;91.22;35.10;;;;;;;3.78;100.00;100459.06;4990666;28;20033;-82
2022/11/21 04:37:58;;;;;;;102.90;34.38;;;;;;;3.81;100.00;100447.66;4988815;28;20484;-82
2022/11/21 04:40:24;;;;;;;84.28;34.78;;;;;;;3.82;100.00;100447.56;4990156;28;20030;-83
2022/11/21 04:42:49;;;;;;;103.03;35.30;;;;;;;3.83;100.00;100445.81;4991175;28;20033;-83
2022/11/21 04:45:15;;;;;;;73.07;33.38;;;;;;;3.84;100.00;100447.50;4973158;28;20053;-82
2022/11/21 04:47:43;;;;;;;59.40;32.30;;;;;;;3.83;100.00;100440.59;4990668;28;20104;-82
2022/11/21 04:50:12;;;;;;;58.67;30.67;;;;;;;3.80;100.00;100436.41;4990059;28;20023;-82
2022/11/21 04:52:37;;;;;;;59.80;32.60;;;;;;;3.82;100.00;100439.78;4992231;28;20057;-82
2022/11/21 04:55:05;;;;;;;70.03;30.42;;;;;;;3.75;100.00;100443.63;4988347;28;20014;-82
2022/11/21 04:57:32;;;;;;;84.32;31.20;;;;;;;3.70;100.00;100441.25;4987979;28;20117;-82
2022/11/21 04:59:57;;;;;;;59.42;30.55;;;;;;;3.66;100.00;100436.31;4994017;28;20390;-81
2022/11/21 05:02:23;;;;;;;35.72;28.23;;;;;;;3.70;100.00;100437.81;4993350;28;20030;-82
2022/11/21 05:04:51;;;;;;;46.17;28.77;;;;;;;3.67;100.00;100445.78;4993835;28;20026;-83
2022/11/21 05:07:17;;;;;;;47.85;27.98;;;;;;;3.55;100.00;100436.00;4992956;28;20395;-82
2022/11/21 05:09:42;;;;;;;40.10;27.30;;;;;;;3.60;100.00;100426.19;4994181;28;20026;-81
2022/11/21 05:14:53;;;;;;;42.53;25.25;;;;;;;3.53;100.00;100428.28;4994765;28;20041;-82
2022/11/21 05:17:21;;;;;;;39.22;26.17;;;;;;;3.54;100.00;100431.72;4994282;28;20027;-82
2022/11/21 05:19:47;;;;;;;84.75;30.08;;;;;;;3.51;100.00;100424.06;4993366;28;20109;-82
2022/11/21 05:22:12;;;;;;;44.15;27.13;;;;;;;3.57;100.00;100422.00;4981106;28;20105;-82
2022/11/21 05:24:38;;;;;;;43.40;27.77;;;;;;;3.57;100.00;100424.59;4976642;28;20065;-81
2022/11/21 05:27:04;;;;;;;95.93;31.65;;;;;;;3.50;100.00;100423.22;4993101;28;20050;-81
2022/11/21 05:29:29;;;;;;;47.08;28.25;;;;;;;3.52;100.00;100413.59;4990973;28;20076;-82
2022/11/21 05:31:55;;;;;;;37.95;27.13;;;;;;;3.58;100.00;100410.66;4994177;28;20054;-81
2022/11/21 05:34:20;;;;;;;36.28;25.63;;;;;;;3.57;100.00;100402.94;4974034;28;20030;-81
2022/11/21 05:36:46;;;;;;;31.35;24.40;;;;;;;3.58;100.00;100407.22;4993133;28;20313;-82
2022/11/21 05:39:11;;;;;;;39.38;25.27;;;;;;;3.55;100.00;100397.81;4990985;28;20022;-82
2022/11/21 05:41:36;;;;;;;35.13;24.55;;;;;;;3.59;100.00;100395.91;4992871;28;20030;-81
2022/11/21 05:44:02;;;;;;;33.72;23.20;;;;;;;3.60;100.00;100390.66;4991178;28;20050;-82
2022/11/21 05:46:27;;;;;;;31.48;21.30;;;;;;;3.67;100.00;100394.59;4992363;28;20474;-81
2022/11/21 05:48:54;;;;;;;30.98;22.48;;;;;;;3.65;100.00;100396.44;4993207;28;20026;-80
2022/11/21 05:51:20;;;;;;;33.67;20.95;;;;;;;3.66;100.00;100395.53;4991994;28;20109;-81
2022/11/21 05:53:47;;;;;;;30.50;20.67;;;;;;;3.67;100.00;100394.59;4992470;28;20053;-81
2022/11/21 05:56:14;;;;;;;29.65;19.27;;;;;;;3.76;100.00;100394.09;4992789;28;20022;-82
2022/11/21 05:58:40;;;;;;;32.00;18.77;;;;;;;3.78;100.00;100387.06;4992579;28;20069;-81
2022/11/21 06:01:06;;;;;;;25.88;18.73;;;;;;;3.85;100.00;100381.53;4990168;28;20019;-82
2022/11/21 06:03:38;;;;;;;29.08;19.85;;;;;;;3.91;100.00;100386.38;4992104;28;20080;-82
2022/11/21 06:06:09;;;;;;;30.90;19.35;;;;;;;3.91;100.00;100389.84;4992640;28;20102;-82
2022/11/21 06:08:37;;;;;;;32.60;20.58;;;;;;;3.95;100.00;100393.94;4989778;28;20034;-82
2022/11/21 06:11:03;;;;;;;35.42;23.30;;;;;;;4.04;100.00;100395.25;4992160;28;20026;-82
2022/11/21 06:13:29;;;;;;;38.25;24.63;;;;;;;4.11;100.00;100393.97;4991856;28;20026;-81
2022/11/21 06:16:07;;;;;;;49.38;28.15;;;;;;;4.19;100.00;100385.75;4973812;28;20102;-83
2022/11/21 06:18:34;;;;;;;44.80;29.42;;;;;;;4.24;100.00;100387.16;4989007;28;20049;-80
2022/11/21 06:21:08;;;;;;;52.70;31.08;;;;;;;4.27;100.00;100373.97;4992739;28;20092;-81
2022/11/21 06:23:35;;;;;;;50.53;31.70;;;;;;;4.27;100.00;100379.19;4990964;28;20038;-83
2022/11/21 06:26:03;;;;;;;46.33;32.30;;;;;;;4.29;100.00;100377.34;4974920;28;20112;-83
2022/11/21 06:28:34;;;;;;;45.65;33.00;;;;;;;4.30;100.00;100370.34;4991102;28;20042;-84
2022/11/21 06:31:07;;;;;;;50.60;33.88;;;;;;;4.29;100.00;100366.06;4991007;28;20026;-81
2022/11/21 06:33:34;;;;;;;51.88;34.65;;;;;;;4.29;100.00;100366.91;4991416;28;20065;-81
2022/11/21 06:36:08;;;;;;;44.70;32.92;;;;;;;4.30;100.00;100360.78;4989672;28;20561;-82
2022/11/21 06:38:33;;;;;;;47.45;33.20;;;;;;;4.29;100.00;100355.66;4974613;28;20026;-83
2022/11/21 06:41:15;;;;;;;48.60;33.22;;;;;;;4.28;100.00;100357.44;4989976;28;20034;-82
2022/11/21 06:43:41;;;;;;;44.05;31.30;;;;;;;4.23;100.00;100356.84;4987470;28;20026;-83
2022/11/21 06:46:07;;;;;;;42.42;32.10;;;;;;;4.22;100.00;100360.38;4995682;28;20494;-84
2022/11/21 06:48:34;;;;;;;43.33;31.52;;;;;;;4.19;100.00;100352.72;4992642;28;20034;-83
2022/11/21 06:51:16;;;;;;;43.83;32.00;;;;;;;4.22;100.00;100349.97;4995320;28;20027;-83
2022/11/21 06:53:41;;;;;;;48.35;32.30;;;;;;;4.18;100.00;100348.44;4998785;28;20030;-83
2022/11/21 06:56:07;;;;;;;42.08;29.67;;;;;;;4.16;100.00;100352.91;4985532;28;20029;-83
2022/11/21 06:58:32;;;;;;;48.95;29.52;;;;;;;4.17;100.00;100357.19;4990828;28;20435;-84
2022/11/21 07:01:09;;;;;;;42.58;29.63;;;;;;;4.15;100.00;100348.63;4993760;28;20387;-83
2022/11/21 07:03:35;;;;;;;43.38;29.25;;;;;;;4.15;100.00;100350.38;4973076;28;20475;-82
2022/11/21 07:06:01;;;;;;;44.25;29.92;;;;;;;4.14;100.00;100344.34;4991037;28;20014;-82
2022/11/21 07:08:27;;;;;;;42.60;28.52;;;;;;;4.12;100.00;100343.59;4992609;28;20054;-83
2022/11/21 07:10:53;;;;;;;38.35;27.83;;;;;;;4.11;100.00;100347.13;4991755;28;20113;-81
2022/11/21 07:13:21;;;;;;;36.58;27.17;;;;;;;4.12;100.00;100335.78;4997702;28;20086;-84
2022/11/21 07:15:52;;;;;;;37.63;26.77;;;;;;;4.11;100.00;100341.06;5000826;28;20026;-82
2022/11/21 07:18:19;;;;;;;42.15;27.30;;;;;;;4.14;100.00;100341.75;4993038;28;20030;-82
2022/11/21 07:20:46;;;;;;;39.50;27.15;;;;;;;4.13;100.00;100340.06;4985412;28;20029;-82
2022/11/21 07:23:14;;;;;;;36.15;26.63;;;;;;;4.16;100.00;100334.69;4992042;28;20036;-82
2022/11/21 07:25:40;;;;;;;36.25;27.08;;;;;;;4.18;100.00;100335.44;4990602;28;20026;-81
2022/11/21 07:28:07;;;;;;;37.22;25.98;;;;;;;4.22;100.00;100334.34;4990763;28;20033;-82
2022/11/21 07:30:33;;;;;;;38.17;26.52;;;;;;;4.26;100.00;100325.44;4991494;28;20108;-82
2022/11/21 07:33:04;;;;;;;38.45;25.42;;;;;;;4.30;100.00;100329.53;4989901;28;20033;-82
2022/11/21 07:35:31;;;;;;;34.92;24.60;;;;;;;4.32;100.00;100335.50;4991513;28;20022;-80
2022/11/21 07:37:56;;;;;;;36.30;23.55;;;;;;;4.36;100.00;100331.78;4993364;28;20117;-82
2022/11/21 07:40:22;;;;;;;31.75;23.15;;;;;;;4.37;100.00;100336.06;4990412;28;20261;-82
2022/11/21 07:42:47;;;;;;;27.85;21.65;;;;;;;4.40;100.00;100332.44;4992030;28;20041;-82
2022/11/21 07:45:14;;;;;;;29.77;20.83;;;;;;;4.43;100.00;100336.69;4991045;28;20042;-81
2022/11/21 07:47:40;;;;;;;34.90;20.70;;;;;;;4.43;100.00;100332.31;4990888;28;20034;-81
2022/11/21 07:50:06;;;;;;;28.48;19.90;;;;;;;4.45;100.00;100329.63;4991894;28;20022;-80
2022/11/21 07:52:31;;;;;;;29.45;18.83;;;;;;;4.48;100.00;100334.66;4992293;28;20030;-81
2022/11/21 07:54:57;;;;;;;27.27;17.98;;;;;;;4.51;100.00;100329.25;4992096;28;20423;-81
2022/11/21 07:57:23;;;;;;;24.55;17.40;;;;;;;4.54;100.00;100323.88;4991553;28;20069;-80
2022/11/21 07:59:48;;;;;;;26.02;17.20;;;;;;;4.54;100.00;100324.72;4991026;28;20027;-82
2022/11/21 08:02:23;;;;;;;28.08;16.48;;;;;;;4.55;100.00;100315.13;4991552;28;20030;-81
2022/11/21 08:04:49;;;;;;;27.75;16.20;;;;;;;4.59;100.00;100306.19;4990308;28;20030;-81
2022/11/21 08:07:15;;;;;;;27.33;15.85;;;;;;;4.59;100.00;100311.41;4989735;28;20026;-81
2022/11/21 08:09:41;;;;;;;18.45;14.32;;;;;;;4.58;100.00;100309.75;4990629;28;20412;-81
2022/11/21 08:12:07;;;;;;;25.45;13.93;;;;;;;4.55;100.00;100309.91;4989684;28;20032;-82
2022/11/21 08:14:33;;;;;;;22.35;14.30;;;;;;;4.55;100.00;100317.72;4989725;28;20041;-82
2022/11/21 08:16:58;;;;;;;22.30;13.77;;;;;;;4.57;100.00;100311.50;5010553;28;20029;-81
2022/11/21 08:19:24;;;;;;;21.35;13.35;;;;;;;4.61;100.00;100306.94;4997548;28;20037;-83
2022/11/21 08:21:49;;;;;;;21.65;13.15;;;;;;;4.63;100.00;100310.31;4973662;28;20110;-81
2022/11/21 08:24:16;;;;;;;19.60;12.50;;;;;;;4.66;100.00;100302.31;4989590;28;20030;-81
2022/11/21 08:26:44;;;;;;;25.05;11.68;;;;;;;4.64;100.00;100294.59;4988750;28;20085;-81
2022/11/21 08:29:11;;;;;;;20.80;12.40;;;;;;;4.68;100.00;100295.25;4987060;28;20026;-82
2022/11/21 08:31:37;;;;;;;19.70;11.00;;;;;;;4.70;100.00;100290.78;4988323;28;20061;-81
2022/11/21 08:34:05;;;;;;;24.42;11.52;;;;;;;4.73;100.00;100283.63;4990414;28;20033;-82
2022/11/21 08:36:32;;;;;;;18.00;10.45;;;;;;;4.75;100.00;100275.72;4990326;28;20487;-82
2022/11/21 08:38:57;;;;;;;22.67;11.35;;;;;;;4.77;100.00;100268.63;4989966;28;21943;-81
2022/11/21 08:44:07;;;;;;;18.13;10.13;;;;;;;4.83;100.00;100264.84;4989156;28;20060;-83
2022/11/21 08:46:36;;;;;;;22.17;9.88;;;;;;;4.84;100.00;100272.59;4996804;28;20510;-83
2022/11/21 08:49:02;;;;;;;16.13;10.05;;;;;;;4.86;100.00;100275.94;4988623;28;20034;-82
2022/11/21 08:51:28;;;;;;;18.40;9.07;;;;;;;4.87;100.00;100275.00;4973849;28;20045;-81
2022/11/21 08:53:53;;;;;;;17.05;9.07;;;;;;;4.91;100.00;100271.28;4971774;28;20027;-82
2022/11/21 08:56:21;;;;;;;18.13;9.18;;;;;;;4.93;100.00;100272.03;4988597;28;20014;-82
2022/11/21 08:58:47;;;;;;;15.70;8.70;;;;;;;4.95;100.00;100266.72;4989346;28;20026;-83
2022/11/21 09:01:12;;;;;;;18.65;9.32;;;;;;;4.96;100.00;100260.56;4972709;28;20026;-83
2022/11/21 09:03:37;;;;;;;17.85;8.48;;;;;;;5.00;100.00;100260.28;4989519;28;20632;-83
2022/11/21 09:06:03;;;;;;;20.63;9.35;;;;;;;5.04;100.00;100258.34;4989265;28;20065;-83
2022/11/21 09:08:29;;;;;;;17.55;8.48;;;;;;;5.09;100.00;100253.69;4984529;28;20033;-81
2022/11/21 09:10:55;;;;;;;18.90;8.45;;;;;;;5.10;100.00;100247.53;4971954;28;20062;-82
2022/11/21 09:13:21;;;;;;;16.85;8.38;;;;;;;5.20;100.00;100247.81;4989368;28;20033;-82
2022/11/21 09:18:31;;;;;;;18.73;8.50;;;;;;;5.22;100.00;100252.03;4990388;28;20084;-82
2022/11/21 09:20:56;;;;;;;17.88;8.45;;;;;;;5.29;100.00;100244.66;4984665;28;20114;-82
2022/11/21 09:23:21;;;;;;;14.60;8.05;;;;;;;5.28;100.00;100243.81;4968747;28;20434;-82
2022/11/21 09:25:46;;;;;;;19.35;8.20;;;;;;;5.31;100.00;100240.19;4989392;28;20041;-82
2022/11/21 09:28:13;;;;;;;16.60;7.40;;;;;;;5.37;100.00;100245.00;4991593;28;20116;-82
2022/11/21 09:30:40;;;;;;;12.45;7.35;;;;;;;5.41;100.00;100248.25;4972512;28;20041;-82
2022/11/21 09:33:08;;;;;;;14.30;7.28;;;;;;;5.45;100.00;100241.91;4987566;28;20026;-82
2022/11/21 09:35:34;;;;;;;12.85;7.15;;;;;;;5.46;100.00;100220.94;4989514;28;20053;-82
2022/11/21 09:37:59;;;;;;;14.57;6.88;;;;;;;5.49;100.00;100222.53;4990089;28;20467;-83
2022/11/21 09:40:27;;;;;;;14.18;7.10;;;;;;;5.49;100.00;100220.75;4986211;28;20026;-82
2022/11/21 09:43:30;;;;;;;15.40;6.97;;;;;;;5.56;100.00;100215.97;4989748;28;20206;-82
2022/11/21 09:46:09;;;;;;;15.50;7.72;;;;;;;5.55;100.00;100220.38;4993054;28;20053;-83
2022/11/21 09:49:00;;;;;;;15.88;6.55;;;;;;;5.59;100.00;100214.00;4992022;28;20030;-82
2022/11/21 09:51:29;;;;;;;11.38;6.45;;;;;;;5.64;100.00;100213.75;4993049;28;20028;-83
2022/11/21 09:54:03;;;;;;;13.43;6.53;;;;;;;5.67;100.00;100205.72;4992649;28;20026;-82
2022/11/21 09:56:32;;;;;;;16.35;7.45;;;;;;;5.72;100.00;100203.66;4991747;28;20027;-83
2022/11/21 09:59:13;;;;;;;14.07;6.13;;;;;;;5.76;100.00;100207.75;4972939;28;20114;-82
2022/11/21 10:01:38;;;;;;;13.60;6.30;;;;;;;5.82;100.00;100201.28;4962868;28;20038;-83
2022/11/21 10:04:04;;;;;;;17.30;6.32;;;;;;;5.85;100.00;100201.91;4980126;28;20026;-82
2022/11/21 10:06:57;;;;;;;13.55;6.25;;;;;;;5.89;100.00;100205.16;4997892;28;20667;-82
2022/11/21 10:09:44;;;;;;;14.35;5.95;;;;;;;5.95;100.00;100202.19;4983476;28;20049;-82
2022/11/21 10:12:37;;;;;;;15.23;6.20;;;;;;;5.97;100.00;100190.69;4994154;28;20031;-83
2022/11/21 10:15:33;;;;;;;18.92;6.90;;;;;;;6.06;100.00;100189.28;4976565;28;20057;-82
2022/11/21 10:18:05;;;;;;;15.50;5.88;;;;;;;6.07;100.00;100185.75;4992447;28;20428;-82
2022/11/21 10:20:56;;;;;;;14.05;5.90;;;;;;;6.10;100.00;100180.31;4996767;28;20023;-82
2022/11/21 10:24:09;;;;;;;16.30;5.95;;;;;;;6.15;100.00;100172.16;5009349;28;20022;-83
2022/11/21 10:26:40;;;;;;;13.07;5.32;;;;;;;6.19;100.00;100158.78;4996694;28;20069;-83
2022/11/21 10:29:25;;;;;;;18.50;5.30;;;;;;;6.31;100.00;100162.34;5004357;28;20066;-82
2022/11/21 10:31:55;;;;;;;13.18;4.93;;;;;;;6.33;100.00;100155.25;5005914;28;20030;-82
2022/11/21 10:34:28;;;;;;;11.35;5.00;;;;;;;6.38;100.00;100154.94;4987325;28;20026;-82
2022/11/21 10:37:04;;;;;;;12.32;4.80;;;;;;;6.37;100.00;100153.25;5004991;28;20217;-83
2022/11/21 10:39:50;;;;;;;12.07;4.53;;;;;;;6.44;100.00;100151.94;5008225;28;20057;-83
2022/11/21 10:42:27;;;;;;;13.05;5.13;;;;;;;6.45;100.00;100159.66;5007785;28;20037;-83
2022/11/21 10:47:37;;;;;;;19.08;4.95;;;;;;;6.58;100.00;100138.75;5006678;28;20042;-82
2022/11/21 10:50:08;;;;;;;10.38;4.40;;;;;;;6.67;100.00;100143.34;5005564;28;20118;-83
2022/11/21 10:56:20;;;;;;;13.80;5.20;;;;;;;6.89;100.00;100130.47;4992932;28;20505;-84
2022/11/21 10:58:50;;;;;;;13.02;4.57;;;;;;;6.99;100.00;100121.97;4992884;28;20406;-83
2022/11/21 11:01:30;;;;;;;11.63;4.72;;;;;;;7.02;100.00;100117.34;4991451;28;20121;-83
2022/11/21 11:04:12;;;;;;;14.57;4.95;;;;;;;7.15;100.00;100107.66;4975639;28;20034;-82
2022/11/21 11:06:39;;;;;;;11.27;3.93;;;;;;;7.17;100.00;100104.94;4975443;28;20027;-82
2022/11/21 11:09:06;;;;;;;11.65;4.40;;;;;;;7.27;100.00;100105.13;4991782;28;20382;-82
2022/11/21 11:11:32;;;;;;;8.70;4.50;;;;;;;7.32;100.00;100106.47;4990878;28;20022;-83
2022/11/21 11:14:04;;;;;;;13.93;4.47;;;;;;;7.34;100.00;100101.97;4992791;28;20031;-83
2022/11/21 11:16:33;;;;;;;17.80;4.57;;;;;;;7.46;100.00;100095.81;4975024;28;20033;-83
2022/11/21 11:19:04;;;;;;;14.90;4.82;;;;;;;7.50;100.00;100092.03;4992123;28;20026;-84
2022/11/21 11:21:38;;;;;;;12.30;4.70;;;;;;;7.59;100.00;100085.28;4992131;28;20057;-83
2022/11/21 11:24:09;;;;;;;15.85;4.57;;;;;;;7.67;100.00;100082.13;4991991;28;20030;-83
2022/11/21 11:26:57;;;;;;;12.57;5.03;;;;;;;7.69;100.00;100075.81;4991187;28;20105;-83
2022/11/21 11:29:29;;;;;;;17.70;4.90;;;;;;;7.74;100.00;100072.88;4986355;28;20433;-84
2022/11/21 11:31:57;;;;;;;11.40;4.55;;;;;;;7.75;100.00;100072.75;4973710;28;20113;-84